ADDS METAR Data INFO
IDs: Format: Raw Decoded Include TAF

Data at: 0859 UTC 20 Oct 2017

KEVB 200147Z 05014KT 10SM FEW003 SCT020 BKN029 24/23 A3013 RMK LAST
KEVB 200135Z 05014KT 7SM FEW003 SCT018 BKN044 24/22 A3013
KEVB 200127Z 05014G23KT 1 3/4SM RA SCT003 BKN018 BKN027 23/22 A3012
KEVB 200047Z 05014KT 10SM SCT023 25/21 A3012
KEVB 192347Z 05014KT 10SM SCT023 24/22 A3011
KEVB 192247Z 03010KT 10SM SCT027 24/22 A3010
KEVB 192147Z 06013G20KT 10SM SCT027 26/22 A3009
KEVB 192047Z 06013G20KT 10SM SCT027 29/21 A3009
KEVB 191947Z 06013G20KT 10SM SCT027 29/22 A3010
KEVB 191847Z 06014G20KT 10SM SCT027 29/22 A3010
KEVB 191747Z 06013G17KT 10SM SCT027 29/22 A3013
KEVB 191647Z 06013G17KT 10SM SCT027 29/22 A3013
KEVB 191547Z 06013KT 10SM SCT027 28/22 A3013
KEVB 191447Z 06012KT 10SM FEW040 28/21 A3013
KEVB 191347Z 03010KT 10SM FEW040 26/21 A3012
KEVB 191247Z 03010KT 10SM BKN040 25/22 A3011
KEVB 191147Z 04010KT 10SM BKN030 24/21 A3010
KEVB 191047Z 04010KT 10SM BKN050 25/21 A3009 RMK FIRST
KEVB 190150Z 07007KT 10SM SCT040 24/20 A3014 RMK LAST
KEVB 190050Z 07012KT 10SM SCT080 24/18 A3013
KEVB 182350Z 04012KT 10SM SCT080 26/18 A3012
KEVB 182250Z 05012KT 10SM SCT080 26/18 A3011
KEVB 182150Z 05012G25KT 10SM SCT038 26/18 A3011